sensor_id;sensor_type;location;lat;lon;timestamp;pressure;altitude;pressure_sealevel;temperature;humidity
56330;BME280;42236;48.058;10.632;2023-04-01T00:02:02;93528.81;;;5.87;93.46
56330;BME280;42236;48.058;10.632;2023-04-01T00:04:48;93521.22;;;5.89;92.77
56330;BME280;42236;48.058;10.632;2023-04-01T00:07:33;93529.84;;;5.94;92.51
56330;BME280;42236;48.058;10.632;2023-04-01T00:10:19;93518.00;;;5.95;92.63
56330;BME280;42236;48.058;10.632;2023-04-01T00:13:05;93526.03;;;5.95;92.66
56330;BME280;42236;48.058;10.632;2023-04-01T00:15:52;93531.84;;;5.97;92.41
56330;BME280;42236;48.058;10.632;2023-04-01T00:18:38;93525.91;;;6.04;91.76
56330;BME280;42236;48.058;10.632;2023-04-01T00:21:24;93535.59;;;6.09;91.71
56330;BME280;42236;48.058;10.632;2023-04-01T00:24:10;93533.03;;;6.12;91.38
56330;BME280;42236;48.058;10.632;2023-04-01T00:26:56;93537.25;;;6.13;91.22
56330;BME280;42236;48.058;10.632;2023-04-01T00:29:42;93535.00;;;6.15;91.25
56330;BME280;42236;48.058;10.632;2023-04-01T00:32:29;93534.69;;;6.17;91.88
56330;BME280;42236;48.058;10.632;2023-04-01T00:35:16;93530.78;;;6.14;92.42
56330;BME280;42236;48.058;10.632;2023-04-01T00:38:02;93535.25;;;6.10;92.65
56330;BME280;42236;48.058;10.632;2023-04-01T00:40:48;93533.34;;;6.11;92.70
56330;BME280;42236;48.058;10.632;2023-04-01T00:43:34;93533.25;;;6.07;93.16
56330;BME280;42236;48.058;10.632;2023-04-01T00:46:20;93529.38;;;6.05;93.22
56330;BME280;42236;48.058;10.632;2023-04-01T00:49:06;93519.44;;;6.05;92.66
56330;BME280;42236;48.058;10.632;2023-04-01T00:51:54;93524.47;;;6.07;92.35
56330;BME280;42236;48.058;10.632;2023-04-01T00:54:43;93534.03;;;6.08;91.99
56330;BME280;42236;48.058;10.632;2023-04-01T00:57:34;93525.13;;;6.04;92.78
56330;BME280;42236;48.058;10.632;2023-04-01T01:00:21;93518.66;;;6.05;92.21
56330;BME280;42236;48.058;10.632;2023-04-01T01:03:07;93506.38;;;6.04;92.09
56330;BME280;42236;48.058;10.632;2023-04-01T01:15:20;93518.66;;;6.05;91.31
56330;BME280;42236;48.058;10.632;2023-04-01T01:18:28;93509.84;;;6.04;91.53
56330;BME280;42236;48.058;10.632;2023-04-01T01:21:27;93505.28;;;6.05;90.99
56330;BME280;42236;48.058;10.632;2023-04-01T01:24:43;93517.53;;;6.06;91.14
56330;BME280;42236;48.058;10.632;2023-04-01T01:27:27;93519.75;;;6.04;90.91
56330;BME280;42236;48.058;10.632;2023-04-01T01:30:22;93509.75;;;6.01;90.15
56330;BME280;42236;48.058;10.632;2023-04-01T01:36:31;93512.41;;;6.01;90.75
56330;BME280;42236;48.058;10.632;2023-04-01T01:39:20;93516.88;;;5.96;90.46
56330;BME280;42236;48.058;10.632;2023-04-01T01:42:15;93502.28;;;5.94;90.43
56330;BME280;42236;48.058;10.632;2023-04-01T01:45:03;93515.19;;;5.92;90.42
56330;BME280;42236;48.058;10.632;2023-04-01T01:47:51;93511.72;;;5.91;90.54
56330;BME280;42236;48.058;10.632;2023-04-01T01:50:38;93499.81;;;5.89;90.73
56330;BME280;42236;48.058;10.632;2023-04-01T01:53:26;93497.13;;;5.89;90.92
56330;BME280;42236;48.058;10.632;2023-04-01T01:56:12;93487.44;;;5.84;90.90
56330;BME280;42236;48.058;10.632;2023-04-01T01:59:08;93496.84;;;5.78;90.95
56330;BME280;42236;48.058;10.632;2023-04-01T02:01:56;93506.41;;;5.79;90.60
56330;BME280;42236;48.058;10.632;2023-04-01T02:04:44;93500.16;;;5.75;90.99
56330;BME280;42236;48.058;10.632;2023-04-01T02:07:33;93501.63;;;5.72;90.78
56330;BME280;42236;48.058;10.632;2023-04-01T02:10:23;93504.53;;;5.67;91.12
56330;BME280;42236;48.058;10.632;2023-04-01T02:13:26;93505.13;;;5.61;90.63
56330;BME280;42236;48.058;10.632;2023-04-01T02:16:19;93521.16;;;5.61;91.19
56330;BME280;42236;48.058;10.632;2023-04-01T02:19:09;93511.88;;;5.58;91.04
56330;BME280;42236;48.058;10.632;2023-04-01T02:21:59;93517.91;;;5.55;90.76
56330;BME280;42236;48.058;10.632;2023-04-01T02:24:47;93524.03;;;5.55;91.11
56330;BME280;42236;48.058;10.632;2023-04-01T02:27:34;93517.91;;;5.55;91.31
56330;BME280;42236;48.058;10.632;2023-04-01T02:30:20;93530.75;;;5.49;91.38
56330;BME280;42236;48.058;10.632;2023-04-01T02:33:07;93532.88;;;5.44;91.73
56330;BME280;42236;48.058;10.632;2023-04-01T02:35:52;93540.47;;;5.42;91.49
56330;BME280;42236;48.058;10.632;2023-04-01T02:38:39;93538.44;;;5.39;91.59
56330;BME280;42236;48.058;10.632;2023-04-01T02:41:25;93547.56;;;5.38;92.16
56330;BME280;42236;48.058;10.632;2023-04-01T02:44:12;93532.75;;;5.40;92.61
56330;BME280;42236;48.058;10.632;2023-04-01T02:46:58;93531.84;;;5.36;93.42
56330;BME280;42236;48.058;10.632;2023-04-01T02:49:43;93542.44;;;5.32;94.37
56330;BME280;42236;48.058;10.632;2023-04-01T02:52:30;93530.97;;;5.32;93.55
56330;BME280;42236;48.058;10.632;2023-04-01T02:55:15;93536.19;;;5.28;93.96
56330;BME280;42236;48.058;10.632;2023-04-01T02:58:01;93530.75;;;5.25;94.03
56330;BME280;42236;48.058;10.632;2023-04-01T03:00:47;93525.28;;;5.21;94.30
56330;BME280;42236;48.058;10.632;2023-04-01T03:03:33;93526.72;;;5.19;93.64
56330;BME280;42236;48.058;10.632;2023-04-01T03:06:19;93531.97;;;5.15;94.06
56330;BME280;42236;48.058;10.632;2023-04-01T03:09:04;93532.31;;;5.13;93.80
56330;BME280;42236;48.058;10.632;2023-04-01T03:11:50;93531.19;;;5.14;94.04
56330;BME280;42236;48.058;10.632;2023-04-01T03:14:36;93528.19;;;5.16;94.12
56330;BME280;42236;48.058;10.632;2023-04-01T03:17:21;93536.97;;;5.17;94.01
56330;BME280;42236;48.058;10.632;2023-04-01T03:20:09;93533.97;;;5.18;93.92
56330;BME280;42236;48.058;10.632;2023-04-01T03:22:56;93538.31;;;5.23;93.80
56330;BME280;42236;48.058;10.632;2023-04-01T03:25:41;93538.44;;;5.26;93.95
56330;BME280;42236;48.058;10.632;2023-04-01T03:28:27;93541.44;;;5.25;94.00
56330;BME280;42236;48.058;10.632;2023-04-01T03:31:13;93544.56;;;5.27;94.41
56330;BME280;42236;48.058;10.632;2023-04-01T03:33:58;93538.09;;;5.28;94.83
56330;BME280;42236;48.058;10.632;2023-04-01T03:36:44;93531.31;;;5.30;94.93
56330;BME280;42236;48.058;10.632;2023-04-01T03:39:30;93535.66;;;5.35;94.93
56330;BME280;42236;48.058;10.632;2023-04-01T03:42:16;93540.00;;;5.40;94.47
56330;BME280;42236;48.058;10.632;2023-04-01T03:45:03;93543.59;;;5.44;94.43
56330;BME280;42236;48.058;10.632;2023-04-01T03:47:49;93537.56;;;5.47;94.16
56330;BME280;42236;48.058;10.632;2023-04-01T03:50:35;93541.44;;;5.49;94.15
56330;BME280;42236;48.058;10.632;2023-04-01T03:53:21;93529.75;;;5.54;93.80
56330;BME280;42236;48.058;10.632;2023-04-01T03:56:08;93534.88;;;5.59;93.80
56330;BME280;42236;48.058;10.632;2023-04-01T03:58:53;93535.66;;;5.60;93.77
56330;BME280;42236;48.058;10.632;2023-04-01T04:01:39;93536.53;;;5.64;93.54
56330;BME280;42236;48.058;10.632;2023-04-01T04:04:25;93539.66;;;5.66;92.95
56330;BME280;42236;48.058;10.632;2023-04-01T04:07:12;93544.34;;;5.69;92.84
56330;BME280;42236;48.058;10.632;2023-04-01T04:09:57;93540.22;;;5.71;92.51
56330;BME280;42236;48.058;10.632;2023-04-01T04:12:43;93549.00;;;5.72;92.45
56330;BME280;42236;48.058;10.632;2023-04-01T04:15:29;93534.53;;;5.73;91.91
56330;BME280;42236;48.058;10.632;2023-04-01T04:18:15;93546.09;;;5.77;91.83
56330;BME280;42236;48.058;10.632;2023-04-01T04:21:01;93541.88;;;5.76;91.45
56330;BME280;42236;48.058;10.632;2023-04-01T04:23:47;93550.81;;;5.80;91.40
56330;BME280;42236;48.058;10.632;2023-04-01T04:26:32;93542.78;;;5.80;91.53
56330;BME280;42236;48.058;10.632;2023-04-01T04:29:18;93547.31;;;5.80;91.07
56330;BME280;42236;48.058;10.632;2023-04-01T04:32:03;93548.22;;;5.84;90.50
56330;BME280;42236;48.058;10.632;2023-04-01T04:34:49;93543.31;;;5.86;90.30
56330;BME280;42236;48.058;10.632;2023-04-01T04:37:35;93555.47;;;5.83;90.09
56330;BME280;42236;48.058;10.632;2023-04-01T04:40:20;93551.66;;;5.84;90.33
56330;BME280;42236;48.058;10.632;2023-04-01T04:43:06;93554.34;;;5.84;90.37
56330;BME280;42236;48.058;10.632;2023-04-01T04:45:52;93556.56;;;5.82;90.28
56330;BME280;42236;48.058;10.632;2023-04-01T04:48:38;93561.16;;;5.82;90.35
56330;BME280;42236;48.058;10.632;2023-04-01T04:51:24;93550.81;;;5.80;89.76
56330;BME280;42236;48.058;10.632;2023-04-01T04:54:09;93554.56;;;5.79;89.88
56330;BME280;42236;48.058;10.632;2023-04-01T04:56:55;93558.38;;;5.78;89.52
56330;BME280;42236;48.058;10.632;2023-04-01T04:59:41;93565.28;;;5.79;90.07
56330;BME280;42236;48.058;10.632;2023-04-01T05:02:27;93553.69;;;5.75;88.92
56330;BME280;42236;48.058;10.632;2023-04-01T05:05:12;93559.03;;;5.75;89.57
56330;BME280;42236;48.058;10.632;2023-04-01T05:07:58;93555.25;;;5.76;89.06
56330;BME280;42236;48.058;10.632;2023-04-01T05:10:43;93569.72;;;5.75;89.19
56330;BME280;42236;48.058;10.632;2023-04-01T05:13:30;93562.16;;;5.77;88.96
56330;BME280;42236;48.058;10.632;2023-04-01T05:16:18;93560.81;;;5.83;88.84
56330;BME280;42236;48.058;10.632;2023-04-01T05:19:04;93561.50;;;5.80;88.75
56330;BME280;42236;48.058;10.632;2023-04-01T05:21:49;93558.25;;;5.87;88.64
56330;BME280;42236;48.058;10.632;2023-04-01T05:24:35;93568.72;;;5.92;88.64
56330;BME280;42236;48.058;10.632;2023-04-01T05:27:21;93565.72;;;5.93;88.75
56330;BME280;42236;48.058;10.632;2023-04-01T05:30:07;93558.94;;;5.96;87.59
56330;BME280;42236;48.058;10.632;2023-04-01T05:32:53;93563.72;;;6.03;87.92
56330;BME280;42236;48.058;10.632;2023-04-01T05:35:39;93563.81;;;6.06;87.54
56330;BME280;42236;48.058;10.632;2023-04-01T05:38:25;93562.47;;;6.12;87.53
56330;BME280;42236;48.058;10.632;2023-04-01T05:41:11;93555.66;;;6.15;86.54
56330;BME280;42236;48.058;10.632;2023-04-01T05:43:57;93553.44;;;6.17;86.31
56330;BME280;42236;48.058;10.632;2023-04-01T05:46:43;93552.31;;;6.18;85.49
56330;BME280;42236;48.058;10.632;2023-04-01T05:49:28;93559.31;;;6.23;85.34
56330;BME280;42236;48.058;10.632;2023-04-01T05:52:14;93563.66;;;6.27;85.46
56330;BME280;42236;48.058;10.632;2023-04-01T05:55:00;93560.28;;;6.30;85.21
56330;BME280;42236;48.058;10.632;2023-04-01T05:57:46;93554.28;;;6.33;85.46
56330;BME280;42236;48.058;10.632;2023-04-01T06:00:33;93561.50;;;6.33;84.79
56330;BME280;42236;48.058;10.632;2023-04-01T06:03:19;93566.53;;;6.34;84.45
56330;BME280;42236;48.058;10.632;2023-04-01T06:06:12;93565.84;;;6.37;84.33
56330;BME280;42236;48.058;10.632;2023-04-01T06:09:10;93562.53;;;6.40;83.38
56330;BME280;42236;48.058;10.632;2023-04-01T06:18:28;93573.00;;;6.46;83.51
56330;BME280;42236;48.058;10.632;2023-04-01T06:21:36;93583.47;;;6.51;83.64
56330;BME280;42236;48.058;10.632;2023-04-01T06:24:35;93572.94;;;6.58;83.68
56330;BME280;42236;48.058;10.632;2023-04-01T06:30:57;93570.91;;;6.67;83.42
56330;BME280;42236;48.058;10.632;2023-04-01T06:40:22;93590.59;;;7.03;82.94
56330;BME280;42236;48.058;10.632;2023-04-01T06:43:33;93582.06;;;7.13;82.90
56330;BME280;42236;48.058;10.632;2023-04-01T06:46:47;93586.88;;;7.08;81.11
56330;BME280;42236;48.058;10.632;2023-04-01T06:49:48;93583.03;;;7.21;81.66
56330;BME280;42236;48.058;10.632;2023-04-01T06:52:52;93586.16;;;7.23;81.40
56330;BME280;42236;48.058;10.632;2023-04-01T06:56:02;93559.56;;;7.34;79.01
56330;BME280;42236;48.058;10.632;2023-04-01T06:59:19;93569.78;;;7.44;79.27
56330;BME280;42236;48.058;10.632;2023-04-01T07:02:22;93570.66;;;7.48;79.39
56330;BME280;42236;48.058;10.632;2023-04-01T07:05:11;93567.47;;;7.42;79.46
56330;BME280;42236;48.058;10.632;2023-04-01T07:08:01;93566.00;;;7.45;79.27
56330;BME280;42236;48.058;10.632;2023-04-01T07:10:56;93573.25;;;7.60;79.93
56330;BME280;42236;48.058;10.632;2023-04-01T07:13:57;93566.41;;;7.63;77.56
56330;BME280;42236;48.058;10.632;2023-04-01T07:16:54;93578.88;;;7.71;78.62
56330;BME280;42236;48.058;10.632;2023-04-01T07:22:48;93564.09;;;7.61;77.39
56330;BME280;42236;48.058;10.632;2023-04-01T07:25:41;93581.28;;;7.60;78.58
56330;BME280;42236;48.058;10.632;2023-04-01T07:28:32;93574.66;;;7.54;77.96
56330;BME280;42236;48.058;10.632;2023-04-01T07:31:32;93572.56;;;7.47;77.79
56330;BME280;42236;48.058;10.632;2023-04-01T07:34:29;93585.38;;;7.54;78.65
56330;BME280;42236;48.058;10.632;2023-04-01T07:40:28;93571.16;;;7.69;78.11
56330;BME280;42236;48.058;10.632;2023-04-01T07:43:37;93586.84;;;7.83;77.95
56330;BME280;42236;48.058;10.632;2023-04-01T07:46:40;93574.19;;;7.84;77.19
56330;BME280;42236;48.058;10.632;2023-04-01T07:49:31;93572.00;;;7.89;77.96
56330;BME280;42236;48.058;10.632;2023-04-01T07:55:30;93584.66;;;8.24;75.29
56330;BME280;42236;48.058;10.632;2023-04-01T07:58:26;93563.13;;;8.40;76.06
56330;BME280;42236;48.058;10.632;2023-04-01T08:13:16;93569.94;;;8.73;72.73
56330;BME280;42236;48.058;10.632;2023-04-01T08:16:35;93568.22;;;8.84;71.52
56330;BME280;42236;48.058;10.632;2023-04-01T08:19:38;93573.03;;;8.94;72.21
56330;BME280;42236;48.058;10.632;2023-04-01T08:25:24;93576.16;;;8.96;72.83
56330;BME280;42236;48.058;10.632;2023-04-01T08:28:17;93580.94;;;9.07;72.15
56330;BME280;42236;48.058;10.632;2023-04-01T08:31:14;93569.59;;;9.17;71.37
56330;BME280;42236;48.058;10.632;2023-04-01T08:34:04;93567.16;;;9.31;72.22
56330;BME280;42236;48.058;10.632;2023-04-01T08:37:00;93577.50;;;9.29;70.13
56330;BME280;42236;48.058;10.632;2023-04-01T08:39:59;93576.22;;;9.43;69.79
56330;BME280;42236;48.058;10.632;2023-04-01T08:52:34;93556.75;;;9.53;67.11
56330;BME280;42236;48.058;10.632;2023-04-01T08:55:44;93559.59;;;9.64;68.90
56330;BME280;42236;48.058;10.632;2023-04-01T09:01:55;93546.06;;;9.83;67.00
56330;BME280;42236;48.058;10.632;2023-04-01T09:05:17;93547.56;;;9.80;66.13
56330;BME280;42236;48.058;10.632;2023-04-01T09:17:47;93543.78;;;9.85;66.04
56330;BME280;42236;48.058;10.632;2023-04-01T09:23:57;93552.72;;;10.19;66.93
56330;BME280;42236;48.058;10.632;2023-04-01T09:30:19;93550.88;;;9.97;65.68
56330;BME280;42236;48.058;10.632;2023-04-01T09:33:37;93552.75;;;9.93;64.52
56330;BME280;42236;48.058;10.632;2023-04-01T09:36:57;93552.44;;;9.98;64.40
56330;BME280;42236;48.058;10.632;2023-04-01T09:46:09;93560.47;;;10.21;65.42
56330;BME280;42236;48.058;10.632;2023-04-01T10:10:56;93575.28;;;9.35;71.75
56330;BME280;42236;48.058;10.632;2023-04-01T10:20:13;93576.53;;;8.75;75.95
56330;BME280;42236;48.058;10.632;2023-04-01T10:23:33;93571.72;;;8.85;76.70
56330;BME280;42236;48.058;10.632;2023-04-01T10:26:38;93573.06;;;8.75;76.41
56330;BME280;42236;48.058;10.632;2023-04-01T10:29:42;93578.72;;;8.70;76.87
56330;BME280;42236;48.058;10.632;2023-04-01T10:36:16;93571.63;;;8.62;79.74
56330;BME280;42236;48.058;10.632;2023-04-01T10:39:37;93597.78;;;8.45;80.01
56330;BME280;42236;48.058;10.632;2023-04-01T10:50:08;93605.44;;;7.92;82.72
56330;BME280;42236;48.058;10.632;2023-04-01T10:52:45;93596.25;;;7.77;83.84
56330;BME280;42236;48.058;10.632;2023-04-01T10:56:09;93599.16;;;7.68;84.33
56330;BME280;42236;48.058;10.632;2023-04-01T10:59:32;93586.56;;;7.41;84.53
56330;BME280;42236;48.058;10.632;2023-04-01T11:22:08;93587.34;;;7.41;85.54
56330;BME280;42236;48.058;10.632;2023-04-01T11:34:13;93575.06;;;7.56;85.85
56330;BME280;42236;48.058;10.632;2023-04-01T11:46:27;93576.59;;;7.89;85.32
56330;BME280;42236;48.058;10.632;2023-04-01T11:49:40;93583.25;;;7.95;84.37
56330;BME280;42236;48.058;10.632;2023-04-01T12:07:53;93588.47;;;8.23;85.72
56330;BME280;42236;48.058;10.632;2023-04-01T12:13:49;93595.09;;;8.45;84.71
56330;BME280;42236;48.058;10.632;2023-04-01T12:16:47;93590.16;;;8.47;84.43
56330;BME280;42236;48.058;10.632;2023-04-01T12:20:12;93608.72;;;8.37;84.76
56330;BME280;42236;48.058;10.632;2023-04-01T12:29:44;93606.63;;;8.10;87.22
56330;BME280;42236;48.058;10.632;2023-04-01T12:32:44;93599.28;;;8.07;86.69
56330;BME280;42236;48.058;10.632;2023-04-01T12:38:44;93616.78;;;8.01;88.26
56330;BME280;42236;48.058;10.632;2023-04-01T12:44:57;93621.63;;;7.96;89.25
56330;BME280;42236;48.058;10.632;2023-04-01T13:07:31;93607.16;;;7.84;89.70
56330;BME280;42236;48.058;10.632;2023-04-01T13:16:35;93606.78;;;8.02;88.58
56330;BME280;42236;48.058;10.632;2023-04-01T13:19:48;93608.81;;;8.05;89.22
56330;BME280;42236;48.058;10.632;2023-04-01T13:26:06;93620.38;;;8.25;89.83
56330;BME280;42236;48.058;10.632;2023-04-01T13:29:04;93618.47;;;8.25;88.01
56330;BME280;42236;48.058;10.632;2023-04-01T13:35:03;93613.69;;;8.19;89.45
56330;BME280;42236;48.058;10.632;2023-04-01T13:44:48;93612.19;;;7.86;89.04
56330;BME280;42236;48.058;10.632;2023-04-01T13:51:18;93620.25;;;7.86;89.93
56330;BME280;42236;48.058;10.632;2023-04-01T13:54:37;93616.88;;;7.89;89.84
56330;BME280;42236;48.058;10.632;2023-04-01T14:38:06;93626.97;;;9.21;81.74
56330;BME280;42236;48.058;10.632;2023-04-01T14:50:17;93613.28;;;9.10;80.86
56330;BME280;42236;48.058;10.632;2023-04-01T14:55:55;93632.84;;;8.88;80.48
56330;BME280;42236;48.058;10.632;2023-04-01T14:58:45;93637.94;;;8.73;81.34
56330;BME280;42236;48.058;10.632;2023-04-01T15:10:59;93642.31;;;8.62;82.72
56330;BME280;42236;48.058;10.632;2023-04-01T15:17:04;93654.09;;;8.58;81.88
56330;BME280;42236;48.058;10.632;2023-04-01T15:26:42;93651.97;;;8.47;83.26
56330;BME280;42236;48.058;10.632;2023-04-01T15:29:36;93648.94;;;8.49;82.65
56330;BME280;42236;48.058;10.632;2023-04-01T15:32:40;93654.75;;;8.35;82.53
56330;BME280;42236;48.058;10.632;2023-04-01T15:35:41;93642.97;;;8.24;82.45
56330;BME280;42236;48.058;10.632;2023-04-01T15:41:45;93641.38;;;8.19;82.26
56330;BME280;42236;48.058;10.632;2023-04-01T15:47:41;93626.34;;;8.18;82.19
56330;BME280;42236;48.058;10.632;2023-04-01T15:50:35;93644.56;;;8.25;81.93
56330;BME280;42236;48.058;10.632;2023-04-01T15:53:43;93636.06;;;8.23;80.94
56330;BME280;42236;48.058;10.632;2023-04-01T15:56:50;93639.00;;;8.18;80.37
56330;BME280;42236;48.058;10.632;2023-04-01T16:03:30;93656.69;;;8.19;81.85
56330;BME280;42236;48.058;10.632;2023-04-01T16:09:53;93646.66;;;8.16;79.27
56330;BME280;42236;48.058;10.632;2023-04-01T16:13:08;93646.75;;;8.19;78.30
56330;BME280;42236;48.058;10.632;2023-04-01T16:22:31;93649.06;;;8.21;78.02
56330;BME280;42236;48.058;10.632;2023-04-01T16:25:26;93660.94;;;8.20;76.95
56330;BME280;42236;48.058;10.632;2023-04-01T16:31:49;93666.66;;;8.18;76.25
56330;BME280;42236;48.058;10.632;2023-04-01T16:37:59;93662.50;;;8.21;76.98
56330;BME280;42236;48.058;10.632;2023-04-01T16:43:59;93678.28;;;8.22;76.96
56330;BME280;42236;48.058;10.632;2023-04-01T16:46:56;93663.63;;;8.20;77.45
56330;BME280;42236;48.058;10.632;2023-04-01T16:49:51;93666.75;;;8.22;78.01
56330;BME280;42236;48.058;10.632;2023-04-01T16:55:54;93667.44;;;8.19;78.57
56330;BME280;42236;48.058;10.632;2023-04-01T16:58:58;93670.47;;;8.17;78.52
56330;BME280;42236;48.058;10.632;2023-04-01T17:01:57;93669.72;;;8.17;78.16
56330;BME280;42236;48.058;10.632;2023-04-01T17:07:55;93677.34;;;8.15;78.22
56330;BME280;42236;48.058;10.632;2023-04-01T17:13:50;93672.56;;;8.08;77.94
56330;BME280;42236;48.058;10.632;2023-04-01T17:17:00;93680.97;;;8.06;77.97
56330;BME280;42236;48.058;10.632;2023-04-01T17:20:12;93683.13;;;8.01;78.46
56330;BME280;42236;48.058;10.632;2023-04-01T17:23:27;93693.28;;;7.91;78.97
56330;BME280;42236;48.058;10.632;2023-04-01T17:26:26;93685.22;;;7.91;78.84
56330;BME280;42236;48.058;10.632;2023-04-01T17:29:27;93689.03;;;7.90;79.11
56330;BME280;42236;48.058;10.632;2023-04-01T17:36:05;93699.50;;;7.80;79.54
56330;BME280;42236;48.058;10.632;2023-04-01T17:39:19;93697.84;;;7.75;79.51
56330;BME280;42236;48.058;10.632;2023-04-01T17:42:40;93708.41;;;7.68;79.82
56330;BME280;42236;48.058;10.632;2023-04-01T17:48:24;93717.84;;;7.62;79.59
56330;BME280;42236;48.058;10.632;2023-04-01T17:52:15;93725.19;;;7.65;80.16
56330;BME280;42236;48.058;10.632;2023-04-01T18:07:08;93728.53;;;7.46;80.87
56330;BME280;42236;48.058;10.632;2023-04-01T18:22:43;93743.19;;;7.20;81.22
56330;BME280;42236;48.058;10.632;2023-04-01T18:25:34;93724.41;;;7.20;81.44
56330;BME280;42236;48.058;10.632;2023-04-01T18:31:36;93731.13;;;7.14;81.90
56330;BME280;42236;48.058;10.632;2023-04-01T18:37:34;93740.63;;;7.12;81.65
56330;BME280;42236;48.058;10.632;2023-04-01T18:40:39;93753.28;;;7.11;81.67
56330;BME280;42236;48.058;10.632;2023-04-01T18:43:49;93754.38;;;7.10;81.59
56330;BME280;42236;48.058;10.632;2023-04-01T18:46:50;93763.47;;;7.05;81.64
56330;BME280;42236;48.058;10.632;2023-04-01T18:50:50;93771.16;;;7.07;81.46
56330;BME280;42236;48.058;10.632;2023-04-01T18:56:26;93775.28;;;7.04;81.20
56330;BME280;42236;48.058;10.632;2023-04-01T18:59:27;93780.88;;;6.99;81.38
56330;BME280;42236;48.058;10.632;2023-04-01T19:02:24;93785.94;;;7.01;81.52
56330;BME280;42236;48.058;10.632;2023-04-01T19:05:14;93787.16;;;7.03;81.52
56330;BME280;42236;48.058;10.632;2023-04-01T19:08:28;93790.84;;;6.99;81.68
56330;BME280;42236;48.058;10.632;2023-04-01T19:11:39;93793.06;;;6.97;81.95
56330;BME280;42236;48.058;10.632;2023-04-01T19:21:13;93789.72;;;6.88;82.08
56330;BME280;42236;48.058;10.632;2023-04-01T19:31:02;93795.56;;;6.77;82.70
56330;BME280;42236;48.058;10.632;2023-04-01T19:34:03;93805.38;;;6.73;82.84
56330;BME280;42236;48.058;10.632;2023-04-01T19:37:02;93803.72;;;6.69;82.48
56330;BME280;42236;48.058;10.632;2023-04-01T19:48:51;93795.69;;;6.56;83.26
56330;BME280;42236;48.058;10.632;2023-04-01T20:00:43;93795.13;;;6.51;83.65
56330;BME280;42236;48.058;10.632;2023-04-01T20:03:49;93789.75;;;6.51;83.46
56330;BME280;42236;48.058;10.632;2023-04-01T20:07:04;93794.34;;;6.50;83.67
56330;BME280;42236;48.058;10.632;2023-04-01T20:10:09;93807.63;;;6.47;84.34
56330;BME280;42236;48.058;10.632;2023-04-01T20:15:44;93800.81;;;6.49;83.76
56330;BME280;42236;48.058;10.632;2023-04-01T20:21:36;93806.06;;;6.46;84.27
56330;BME280;42236;48.058;10.632;2023-04-01T20:24:31;93806.28;;;6.40;84.68
56330;BME280;42236;48.058;10.632;2023-04-01T20:27:24;93811.19;;;6.38;84.91
56330;BME280;42236;48.058;10.632;2023-04-01T20:37:00;93819.88;;;6.35;85.58
56330;BME280;42236;48.058;10.632;2023-04-01T20:46:20;93825.59;;;6.34;85.92
56330;BME280;42236;48.058;10.632;2023-04-01T20:55:16;93831.63;;;6.31;85.27
56330;BME280;42236;48.058;10.632;2023-04-01T20:58:36;93833.50;;;6.30;85.34
56330;BME280;42236;48.058;10.632;2023-04-01T21:08:36;93847.78;;;6.34;85.43
56330;BME280;42236;48.058;10.632;2023-04-01T21:26:47;93860.06;;;6.35;84.76
56330;BME280;42236;48.058;10.632;2023-04-01T21:33:05;93862.31;;;6.33;85.14
56330;BME280;42236;48.058;10.632;2023-04-01T21:39:01;93873.25;;;6.40;84.54
56330;BME280;42236;48.058;10.632;2023-04-01T21:47:47;93879.28;;;6.50;83.96
56330;BME280;42236;48.058;10.632;2023-04-01T21:50:47;93880.41;;;6.49;83.92
56330;BME280;42236;48.058;10.632;2023-04-01T21:54:20;93886.44;;;6.46;84.26
56330;BME280;42236;48.058;10.632;2023-04-01T22:00:23;93893.03;;;6.48;84.15
56330;BME280;42236;48.058;10.632;2023-04-01T22:06:34;93906.88;;;6.50;84.08
56330;BME280;42236;48.058;10.632;2023-04-01T22:09:29;93907.97;;;6.49;83.84
56330;BME280;42236;48.058;10.632;2023-04-01T22:12:34;93906.28;;;6.45;84.24
56330;BME280;42236;48.058;10.632;2023-04-01T22:16:05;93906.28;;;6.45;84.08
56330;BME280;42236;48.058;10.632;2023-04-01T22:19:12;93908.09;;;6.40;84.30
56330;BME280;42236;48.058;10.632;2023-04-01T22:22:01;93906.88;;;6.38;84.13
56330;BME280;42236;48.058;10.632;2023-04-01T22:24:58;93897.34;;;6.28;84.42
56330;BME280;42236;48.058;10.632;2023-04-01T22:27:55;93901.34;;;6.22;84.52
56330;BME280;42236;48.058;10.632;2023-04-01T22:30:51;93909.38;;;6.22;84.77
56330;BME280;42236;48.058;10.632;2023-04-01T22:33:56;93906.25;;;6.20;84.72
56330;BME280;42236;48.058;10.632;2023-04-01T22:36:48;93911.47;;;6.16;84.76
56330;BME280;42236;48.058;10.632;2023-04-01T22:40:22;93910.44;;;6.09;85.01
56330;BME280;42236;48.058;10.632;2023-04-01T22:43:29;93908.09;;;6.07;84.97
56330;BME280;42236;48.058;10.632;2023-04-01T22:49:48;93907.97;;;6.04;85.01
56330;BME280;42236;48.058;10.632;2023-04-01T22:52:41;93917.31;;;5.97;85.31
56330;BME280;42236;48.058;10.632;2023-04-01T22:55:29;93909.97;;;5.94;85.42
56330;BME280;42236;48.058;10.632;2023-04-01T22:58:33;93916.59;;;5.88;86.35
56330;BME280;42236;48.058;10.632;2023-04-01T23:01:25;93912.78;;;5.89;85.93
56330;BME280;42236;48.058;10.632;2023-04-01T23:04:16;93916.59;;;5.88;85.98
56330;BME280;42236;48.058;10.632;2023-04-01T23:07:36;93917.88;;;5.82;86.50
56330;BME280;42236;48.058;10.632;2023-04-01T23:10:45;93927.81;;;5.82;86.38
56330;BME280;42236;48.058;10.632;2023-04-01T23:13:41;93936.63;;;5.82;86.23
56330;BME280;42236;48.058;10.632;2023-04-01T23:16:36;93927.81;;;5.82;86.08
56330;BME280;42236;48.058;10.632;2023-04-01T23:19:41;93935.38;;;5.80;86.33
56330;BME280;42236;48.058;10.632;2023-04-01T23:22:49;93930.84;;;5.80;86.35
56330;BME280;42236;48.058;10.632;2023-04-01T23:28:33;93929.25;;;5.79;86.07
56330;BME280;42236;48.058;10.632;2023-04-01T23:31:38;93938.41;;;5.78;86.66
56330;BME280;42236;48.058;10.632;2023-04-01T23:34:28;93934.59;;;5.79;86.47
56330;BME280;42236;48.058;10.632;2023-04-01T23:37:15;93945.31;;;5.79;86.70
56330;BME280;42236;48.058;10.632;2023-04-01T23:40:03;93947.19;;;5.78;86.64
56330;BME280;42236;48.058;10.632;2023-04-01T23:42:50;93936.81;;;5.77;86.37